Time;durP1;ratioP1;P1;durP2;ratioP2;P2;SDS_P1;SDS_P2;PMS_P1;PMS_P2;Temp;Humidity;BMP_temperature;BMP_pressure;BME280_temperature;BME280_humidity;BME280_pressure;Samples;Min_cycle;Max_cycle;Signal;HPM_P1;HPM_P2
2021/09/19 00:25:00;;;;;;;2.50;2.08;;;;;;;;;;12856077;22;20105;-86
2021/09/19 00:30:01;;;;;;;3.40;2.47;;;;;;;;;;12877463;23;20023;-85
2021/09/19 00:35:02;;;;;;;2.20;1.95;;;;;;;;;;12868265;23;20384;-86
2021/09/19 00:40:03;;;;;;;3.75;2.58;;;;;;;;;;12846436;23;20004;-86
2021/09/19 00:45:07;;;;;;;2.38;2.10;;;;;;;;;;12878820;23;20020;-85
2021/09/19 00:50:09;;;;;;;2.70;2.10;;;;;;;;;;12877693;23;20035;-85
2021/09/19 00:55:10;;;;;;;2.30;2.10;;;;;;;;;;12875362;23;20055;-84
2021/09/19 01:00:12;;;;;;;3.28;2.38;;;;;;;;;;12866118;23;20008;-85
2021/09/19 01:05:17;;;;;;;1.65;1.55;;;;;;;;;;12865150;23;20447;-85
2021/09/19 01:10:18;;;;;;;2.30;1.60;;;;;;;;;;12862867;23;20009;-86
2021/09/19 01:15:20;;;;;;;2.13;1.92;;;;;;;;;;12857957;23;20064;-85
2021/09/19 01:20:21;;;;;;;2.63;2.40;;;;;;;;;;12861585;23;20008;-85
2021/09/19 01:25:22;;;;;;;2.97;2.53;;;;;;;;;;12891536;23;20044;-85
2021/09/19 01:30:23;;;;;;;2.40;2.20;;;;;;;;;;12858041;23;20035;-84
2021/09/19 01:35:24;;;;;;;2.45;1.85;;;;;;;;;;12874399;23;20051;-86
2021/09/19 01:40:26;;;;;;;3.28;2.20;;;;;;;;;;12841291;23;20014;-86
2021/09/19 01:45:28;;;;;;;1.77;1.60;;;;;;;;;;12853271;23;20004;-85
2021/09/19 01:50:29;;;;;;;2.40;2.20;;;;;;;;;;12853461;23;20012;-86
2021/09/19 01:55:30;;;;;;;2.33;2.08;;;;;;;;;;12855697;23;19984;-86
2021/09/19 02:00:31;;;;;;;2.30;1.75;;;;;;;;;;12869588;23;20012;-86
2021/09/19 02:05:32;;;;;;;3.55;2.60;;;;;;;;;;12840678;23;20005;-86
2021/09/19 02:10:33;;;;;;;2.58;2.25;;;;;;;;;;12849080;23;20333;-86
2021/09/19 02:15:34;;;;;;;2.25;1.90;;;;;;;;;;12838879;23;20019;-84
2021/09/19 02:20:35;;;;;;;2.33;2.10;;;;;;;;;;12843366;23;20051;-86
2021/09/19 02:25:36;;;;;;;2.05;1.70;;;;;;;;;;12840168;23;20012;-86
2021/09/19 02:30:36;;;;;;;2.15;1.80;;;;;;;;;;12840378;23;20005;-86
2021/09/19 02:35:37;;;;;;;3.00;2.70;;;;;;;;;;12840243;23;20005;-86
2021/09/19 02:40:38;;;;;;;3.30;2.60;;;;;;;;;;12838134;23;20388;-86
2021/09/19 02:45:40;;;;;;;3.17;2.88;;;;;;;;;;12872453;23;19985;-85
2021/09/19 02:50:41;;;;;;;3.20;2.38;;;;;;;;;;12865665;23;20009;-86
2021/09/19 02:55:42;;;;;;;3.70;3.13;;;;;;;;;;12840598;23;19993;-86
2021/09/19 03:00:42;;;;;;;3.35;2.35;;;;;;;;;;12865696;23;20004;-86
2021/09/19 03:05:43;;;;;;;2.85;2.58;;;;;;;;;;12839902;23;20020;-84
2021/09/19 03:10:44;;;;;;;3.55;3.13;;;;;;;;;;12853800;23;20004;-85
2021/09/19 03:15:45;;;;;;;4.43;4.03;;;;;;;;;;12853720;23;20001;-83
2021/09/19 03:20:46;;;;;;;5.18;4.68;;;;;;;;;;12844218;23;20008;-86
2021/09/19 03:25:47;;;;;;;2.90;2.60;;;;;;;;;;12842721;23;20514;-86
2021/09/19 03:30:48;;;;;;;2.67;2.42;;;;;;;;;;12857461;23;20004;-83
2021/09/19 03:35:49;;;;;;;3.47;3.17;;;;;;;;;;12849491;23;20000;-85
2021/09/19 03:40:50;;;;;;;3.63;3.33;;;;;;;;;;12845379;23;20037;-86
2021/09/19 03:45:51;;;;;;;3.40;2.55;;;;;;;;;;12851138;23;20005;-83
2021/09/19 03:50:52;;;;;;;3.53;3.17;;;;;;;;;;12884482;23;20333;-84
2021/09/19 03:55:53;;;;;;;3.67;3.35;;;;;;;;;;12853918;23;20008;-84
2021/09/19 04:00:54;;;;;;;4.57;4.10;;;;;;;;;;12848705;23;20067;-86
2021/09/19 04:05:55;;;;;;;3.40;3.10;;;;;;;;;;12844941;23;20013;-86
2021/09/19 04:10:56;;;;;;;3.63;3.33;;;;;;;;;;12845619;23;20384;-86
2021/09/19 04:15:57;;;;;;;4.55;3.35;;;;;;;;;;12852295;23;20092;-84
2021/09/19 04:20:58;;;;;;;4.30;3.50;;;;;;;;;;12868068;23;20005;-84
2021/09/19 04:25:59;;;;;;;4.03;3.55;;;;;;;;;;12872085;23;20008;-85
2021/09/19 04:31:00;;;;;;;5.70;3.72;;;;;;;;;;12879839;23;20008;-83
2021/09/19 04:36:01;;;;;;;4.43;4.03;;;;;;;;;;12872742;23;20429;-83
2021/09/19 04:41:02;;;;;;;4.30;3.90;;;;;;;;;;12879176;23;20005;-84
2021/09/19 04:46:03;;;;;;;7.15;6.00;;;;;;;;;;12873242;23;20076;-85
2021/09/19 04:51:04;;;;;;;3.83;3.38;;;;;;;;;;12843056;23;20012;-85
2021/09/19 04:56:05;;;;;;;4.18;3.38;;;;;;;;;;12842289;23;20437;-86
2021/09/19 05:01:06;;;;;;;3.90;3.47;;;;;;;;;;12851313;23;20000;-85
2021/09/19 05:06:32;;;;;;;5.47;4.35;;;;;;;;;;12863654;23;20010;-84
2021/09/19 05:11:34;;;;;;;3.88;3.47;;;;;;;;;;12865949;23;20009;-84
2021/09/19 05:16:34;;;;;;;3.85;3.55;;;;;;;;;;12864247;23;20005;-84
2021/09/19 05:21:35;;;;;;;5.50;4.97;;;;;;;;;;12898181;23;20000;-84
2021/09/19 05:26:36;;;;;;;6.15;5.43;;;;;;;;;;12866512;23;20024;-84
2021/09/19 05:31:37;;;;;;;4.80;4.30;;;;;;;;;;12891623;23;20001;-85
2021/09/19 05:36:38;;;;;;;4.20;3.70;;;;;;;;;;12894317;23;20008;-86
2021/09/19 05:41:39;;;;;;;4.30;3.90;;;;;;;;;;12840560;23;20035;-86
2021/09/19 05:46:40;;;;;;;4.35;3.85;;;;;;;;;;12841126;23;20005;-86
2021/09/19 05:51:41;;;;;;;6.88;5.07;;;;;;;;;;12840754;23;20008;-86
2021/09/19 05:56:42;;;;;;;4.25;3.85;;;;;;;;;;12843297;23;20000;-86
2021/09/19 06:01:43;;;;;;;3.65;3.35;;;;;;;;;;12860105;23;20008;-85
2021/09/19 06:06:44;;;;;;;5.15;4.43;;;;;;;;;;12862445;23;20445;-85
2021/09/19 06:11:45;;;;;;;6.88;5.85;;;;;;;;;;12888809;23;20008;-85
2021/09/19 06:16:46;;;;;;;4.28;3.88;;;;;;;;;;12858223;23;20008;-86
2021/09/19 06:21:47;;;;;;;4.25;3.17;;;;;;;;;;12843687;23;20024;-85
2021/09/19 12:30:14;;;;;;;1.50;1.02;;;;;;;;;;12945055;22;20024;-85
2021/09/19 12:35:23;;;;;;;1.13;0.80;;;;;;;;;;12941449;23;20043;-84
2021/09/19 12:40:25;;;;;;;1.38;1.13;;;;;;;;;;12943165;23;20007;-85
2021/09/19 12:45:26;;;;;;;1.70;1.20;;;;;;;;;;12940001;23;20011;-85
2021/09/19 12:50:28;;;;;;;1.20;1.10;;;;;;;;;;12943771;23;20014;-85
2021/09/19 12:55:29;;;;;;;2.20;1.70;;;;;;;;;;12941890;23;20004;-84
2021/09/19 13:00:30;;;;;;;1.30;1.05;;;;;;;;;;12941961;23;20070;-85
2021/09/19 13:05:32;;;;;;;2.17;1.42;;;;;;;;;;12942554;23;20000;-85
2021/09/19 13:10:33;;;;;;;2.83;1.25;;;;;;;;;;12958362;23;20420;-86
2021/09/19 13:15:34;;;;;;;1.80;1.30;;;;;;;;;;12949691;23;20027;-86
2021/09/19 13:20:35;;;;;;;2.33;1.50;;;;;;;;;;12948957;23;20020;-86
2021/09/19 13:25:36;;;;;;;1.80;1.27;;;;;;;;;;12945913;23;20004;-85
2021/09/19 13:30:37;;;;;;;2.35;1.80;;;;;;;;;;12944912;23;20046;-85
2021/09/19 13:46:58;;;;;;;2.53;1.63;;;;;;;;;;12931062;23;20004;-86
2021/09/19 13:52:00;;;;;;;3.15;1.77;;;;;;;;;;12926748;23;20007;-87
2021/09/19 13:57:01;;;;;;;2.15;1.77;;;;;;;;;;12927567;23;20004;-87
2021/09/19 14:02:02;;;;;;;2.88;2.25;;;;;;;;;;12933312;23;20432;-87
2021/09/19 14:07:03;;;;;;;3.67;2.70;;;;;;;;;;12929995;23;20074;-88
2021/09/19 14:12:04;;;;;;;2.97;2.67;;;;;;;;;;12929603;23;20008;-86
2021/09/19 14:17:05;;;;;;;2.08;1.88;;;;;;;;;;12931891;23;20027;-87
2021/09/19 14:22:08;;;;;;;5.22;4.60;;;;;;;;;;12930568;23;20004;-86
2021/09/19 14:27:09;;;;;;;3.22;2.65;;;;;;;;;;12927590;23;20020;-85
2021/09/19 14:32:10;;;;;;;3.22;2.63;;;;;;;;;;12941703;23;20011;-85
2021/09/19 14:37:11;;;;;;;3.25;2.47;;;;;;;;;;12958016;23;20000;-85
2021/09/19 14:42:11;;;;;;;4.03;3.38;;;;;;;;;;12950524;23;20340;-85
2021/09/19 14:47:12;;;;;;;4.65;3.00;;;;;;;;;;12939756;23;20019;-84
2021/09/19 14:52:13;;;;;;;4.00;3.42;;;;;;;;;;12944680;23;20436;-85
2021/09/19 14:57:14;;;;;;;3.58;3.10;;;;;;;;;;12948917;23;20020;-85
2021/09/19 15:02:15;;;;;;;3.85;3.25;;;;;;;;;;12973834;22;20004;-85
2021/09/19 15:07:16;;;;;;;5.18;3.78;;;;;;;;;;12967992;22;20008;-86
2021/09/19 15:12:17;;;;;;;3.60;3.10;;;;;;;;;;12950969;23;20062;-86
2021/09/19 15:17:18;;;;;;;3.80;3.03;;;;;;;;;;12941533;23;19996;-88
2021/09/19 15:22:19;;;;;;;3.63;3.15;;;;;;;;;;12945336;23;20075;-85
2021/09/19 15:27:20;;;;;;;4.82;3.47;;;;;;;;;;12954028;23;20068;-86
2021/09/19 15:32:21;;;;;;;4.88;3.60;;;;;;;;;;12958707;23;20016;-86
2021/09/19 15:37:22;;;;;;;5.03;3.70;;;;;;;;;;12950974;23;20007;-87
2021/09/19 15:42:23;;;;;;;6.22;3.58;;;;;;;;;;12928988;23;20014;-87
2021/09/19 15:47:28;;;;;;;4.60;3.58;;;;;;;;;;12929346;23;20065;-86
2021/09/19 15:52:29;;;;;;;4.07;3.33;;;;;;;;;;12948901;23;20050;-88
2021/09/19 15:57:30;;;;;;;5.32;3.70;;;;;;;;;;12934616;23;20061;-87
2021/09/19 16:02:31;;;;;;;3.97;3.58;;;;;;;;;;12933460;23;20000;-87
2021/09/19 16:07:31;;;;;;;4.90;3.53;;;;;;;;;;12934737;23;20011;-87
2021/09/19 16:12:32;;;;;;;3.17;2.88;;;;;;;;;;12970848;23;19984;-86
2021/09/19 16:17:35;;;;;;;6.88;5.30;;;;;;;;;;12946505;23;20459;-88
2021/09/19 16:22:36;;;;;;;4.28;3.25;;;;;;;;;;12926469;23;20012;-87
2021/09/19 16:27:54;;;;;;;5.30;3.05;;;;;;;;;;12927449;23;20083;-88
2021/09/19 16:32:55;;;;;;;3.80;3.22;;;;;;;;;;12928622;23;20011;-87
2021/09/19 16:37:56;;;;;;;3.83;2.55;;;;;;;;;;12930201;23;20000;-88
2021/09/19 16:42:57;;;;;;;4.32;3.38;;;;;;;;;;12935692;23;20066;-88
2021/09/19 16:47:58;;;;;;;3.75;2.80;;;;;;;;;;12931482;23;20004;-87
2021/09/19 16:52:59;;;;;;;5.50;3.15;;;;;;;;;;12932359;23;20000;-86
2021/09/19 16:58:00;;;;;;;3.22;2.60;;;;;;;;;;12933501;23;20002;-87
2021/09/19 17:03:01;;;;;;;3.92;2.70;;;;;;;;;;12933738;23;20020;-87
2021/09/19 17:08:02;;;;;;;4.22;2.47;;;;;;;;;;12931812;23;20008;-87
2021/09/19 17:13:03;;;;;;;3.50;3.20;;;;;;;;;;12927301;23;20420;-87
2021/09/19 17:18:04;;;;;;;3.75;2.67;;;;;;;;;;12930561;23;19996;-87
2021/09/19 17:23:05;;;;;;;4.30;2.97;;;;;;;;;;12928987;23;20008;-87
2021/09/19 17:28:06;;;;;;;4.38;2.85;;;;;;;;;;12928457;23;20345;-87
2021/09/19 17:33:07;;;;;;;4.10;2.38;;;;;;;;;;12931332;23;20004;-87
2021/09/19 17:38:08;;;;;;;3.40;2.72;;;;;;;;;;12953215;22;20099;-87
2021/09/19 17:43:09;;;;;;;3.75;3.03;;;;;;;;;;12941314;23;20007;-87
2021/09/19 17:48:10;;;;;;;3.80;2.75;;;;;;;;;;12927531;23;20011;-87
2021/09/19 17:53:12;;;;;;;5.03;2.70;;;;;;;;;;12927445;23;20031;-88
2021/09/19 17:58:14;;;;;;;4.45;3.20;;;;;;;;;;12934460;23;20063;-86
2021/09/19 18:03:15;;;;;;;3.53;2.72;;;;;;;;;;12958234;23;20007;-87
2021/09/19 18:08:16;;;;;;;3.97;3.10;;;;;;;;;;12934439;23;20416;-86
2021/09/19 18:13:19;;;;;;;3.53;2.50;;;;;;;;;;12928116;23;20000;-87
2021/09/19 18:18:20;;;;;;;5.57;2.78;;;;;;;;;;12927837;23;20008;-87
2021/09/19 18:23:21;;;;;;;3.22;2.60;;;;;;;;;;12928818;23;20031;-87
2021/09/19 18:28:22;;;;;;;2.95;2.65;;;;;;;;;;12935067;23;20064;-85
2021/09/19 18:33:23;;;;;;;5.25;2.97;;;;;;;;;;12944126;23;20004;-86
2021/09/19 18:38:24;;;;;;;4.55;2.50;;;;;;;;;;12939492;23;20056;-86
2021/09/19 18:43:25;;;;;;;3.75;2.53;;;;;;;;;;12941893;23;20350;-86
2021/09/19 18:48:27;;;;;;;3.97;2.67;;;;;;;;;;12941714;23;20087;-86
2021/09/19 18:53:28;;;;;;;4.13;2.63;;;;;;;;;;12942221;23;20077;-85
2021/09/19 18:58:28;;;;;;;4.03;2.60;;;;;;;;;;12946799;23;20082;-88
2021/09/19 19:03:29;;;;;;;5.43;3.03;;;;;;;;;;12945098;23;20341;-85
2021/09/19 19:08:30;;;;;;;3.20;2.67;;;;;;;;;;12937677;23;20023;-86
2021/09/19 19:13:32;;;;;;;4.50;3.05;;;;;;;;;;12933839;23;20027;-86
2021/09/19 19:18:34;;;;;;;3.70;3.17;;;;;;;;;;12935046;23;20061;-86
2021/09/19 19:23:36;;;;;;;3.80;3.30;;;;;;;;;;12935339;23;20062;-87
2021/09/19 19:28:37;;;;;;;4.30;3.30;;;;;;;;;;12935662;23;20012;-86
2021/09/19 19:33:38;;;;;;;4.47;3.28;;;;;;;;;;12940045;23;20064;-86
2021/09/19 19:38:39;;;;;;;4.88;2.97;;;;;;;;;;12937432;23;20000;-87
2021/09/19 19:43:46;;;;;;;2.90;2.58;;;;;;;;;;12939239;23;20008;-87
2021/09/19 19:48:48;;;;;;;4.18;3.08;;;;;;;;;;12939163;23;20054;-86
2021/09/19 19:53:49;;;;;;;6.10;3.88;;;;;;;;;;12938351;23;20000;-87
2021/09/19 19:58:50;;;;;;;4.22;3.45;;;;;;;;;;12936763;23;20001;-87
2021/09/19 20:03:51;;;;;;;4.03;3.63;;;;;;;;;;12938975;23;20062;-87
2021/09/19 20:08:56;;;;;;;4.15;3.08;;;;;;;;;;12937417;23;20012;-86
2021/09/19 20:13:57;;;;;;;4.90;3.58;;;;;;;;;;12935771;23;20056;-86
